sensor_id;sensor_type;location;lat;lon;timestamp;temperature;humidity
11128;DHT22;5618;51.028;5.234;2022-08-30T00:02:32;20.00;99.90
11128;DHT22;5618;51.028;5.234;2022-08-30T00:04:59;20.10;99.90
11128;DHT22;5618;51.028;5.234;2022-08-30T00:07:26;20.00;99.90
11128;DHT22;5618;51.028;5.234;2022-08-30T00:09:51;19.80;99.90
11128;DHT22;5618;51.028;5.234;2022-08-30T00:12:17;19.60;99.90
11128;DHT22;5618;51.028;5.234;2022-08-30T00:14:45;19.60;99.90
11128;DHT22;5618;51.028;5.234;2022-08-30T00:17:11;19.50;99.90
11128;DHT22;5618;51.028;5.234;2022-08-30T00:19:37;19.60;99.90
11128;DHT22;5618;51.028;5.234;2022-08-30T00:22:04;19.60;99.90
11128;DHT22;5618;51.028;5.234;2022-08-30T00:24:31;19.70;99.90
11128;DHT22;5618;51.028;5.234;2022-08-30T00:26:57;19.60;99.90
11128;DHT22;5618;51.028;5.234;2022-08-30T00:29:22;19.50;99.90
11128;DHT22;5618;51.028;5.234;2022-08-30T00:31:48;19.50;99.90
11128;DHT22;5618;51.028;5.234;2022-08-30T00:34:14;19.30;99.90
11128;DHT22;5618;51.028;5.234;2022-08-30T00:36:42;19.40;99.90
11128;DHT22;5618;51.028;5.234;2022-08-30T00:39:08;19.50;99.90
11128;DHT22;5618;51.028;5.234;2022-08-30T00:41:34;19.50;99.90
11128;DHT22;5618;51.028;5.234;2022-08-30T00:43:59;19.50;99.90
11128;DHT22;5618;51.028;5.234;2022-08-30T00:46:25;19.60;99.90
11128;DHT22;5618;51.028;5.234;2022-08-30T00:48:52;19.80;99.90
11128;DHT22;5618;51.028;5.234;2022-08-30T00:51:19;19.90;99.90
11128;DHT22;5618;51.028;5.234;2022-08-30T00:53:49;20.00;99.90
11128;DHT22;5618;51.028;5.234;2022-08-30T00:56:16;20.00;99.90
11128;DHT22;5618;51.028;5.234;2022-08-30T00:58:46;19.90;99.90
11128;DHT22;5618;51.028;5.234;2022-08-30T01:01:13;19.90;99.90
11128;DHT22;5618;51.028;5.234;2022-08-30T01:03:40;19.90;99.90
11128;DHT22;5618;51.028;5.234;2022-08-30T01:06:06;19.80;99.90
11128;DHT22;5618;51.028;5.234;2022-08-30T01:08:32;19.60;99.90
11128;DHT22;5618;51.028;5.234;2022-08-30T01:10:58;19.70;99.90
11128;DHT22;5618;51.028;5.234;2022-08-30T01:13:25;19.80;99.90
11128;DHT22;5618;51.028;5.234;2022-08-30T01:15:53;20.10;99.90
11128;DHT22;5618;51.028;5.234;2022-08-30T01:18:19;20.00;99.90
11128;DHT22;5618;51.028;5.234;2022-08-30T01:23:25;19.90;99.90
11128;DHT22;5618;51.028;5.234;2022-08-30T01:25:52;19.70;99.90
11128;DHT22;5618;51.028;5.234;2022-08-30T01:28:25;19.50;99.90
11128;DHT22;5618;51.028;5.234;2022-08-30T01:30:52;19.50;99.90
11128;DHT22;5618;51.028;5.234;2022-08-30T01:33:18;19.30;99.90
11128;DHT22;5618;51.028;5.234;2022-08-30T01:36:03;19.40;99.90
11128;DHT22;5618;51.028;5.234;2022-08-30T01:38:46;19.30;99.90
11128;DHT22;5618;51.028;5.234;2022-08-30T01:43:40;19.20;99.90
11128;DHT22;5618;51.028;5.234;2022-08-30T01:46:06;19.20;99.90
11128;DHT22;5618;51.028;5.234;2022-08-30T01:48:32;19.30;99.90
11128;DHT22;5618;51.028;5.234;2022-08-30T01:50:58;19.40;99.90
11128;DHT22;5618;51.028;5.234;2022-08-30T01:53:24;19.30;99.90
11128;DHT22;5618;51.028;5.234;2022-08-30T01:55:50;19.40;99.90
11128;DHT22;5618;51.028;5.234;2022-08-30T01:58:16;19.60;99.90
11128;DHT22;5618;51.028;5.234;2022-08-30T02:00:41;19.70;99.90
11128;DHT22;5618;51.028;5.234;2022-08-30T02:03:07;19.70;99.90
11128;DHT22;5618;51.028;5.234;2022-08-30T02:05:33;19.50;99.90
11128;DHT22;5618;51.028;5.234;2022-08-30T02:07:59;19.50;99.90
11128;DHT22;5618;51.028;5.234;2022-08-30T02:10:25;19.70;99.90
11128;DHT22;5618;51.028;5.234;2022-08-30T02:12:50;19.70;99.90
11128;DHT22;5618;51.028;5.234;2022-08-30T02:15:16;19.70;99.90
11128;DHT22;5618;51.028;5.234;2022-08-30T02:17:43;19.80;99.90
11128;DHT22;5618;51.028;5.234;2022-08-30T02:20:09;19.70;99.90
11128;DHT22;5618;51.028;5.234;2022-08-30T02:22:35;19.80;99.90
11128;DHT22;5618;51.028;5.234;2022-08-30T02:25:01;19.70;99.90
11128;DHT22;5618;51.028;5.234;2022-08-30T02:27:27;19.70;99.90
11128;DHT22;5618;51.028;5.234;2022-08-30T02:29:52;19.50;99.90
11128;DHT22;5618;51.028;5.234;2022-08-30T02:32:18;19.50;99.90
11128;DHT22;5618;51.028;5.234;2022-08-30T02:34:44;19.60;99.90
11128;DHT22;5618;51.028;5.234;2022-08-30T02:37:11;19.60;99.90
11128;DHT22;5618;51.028;5.234;2022-08-30T02:39:37;19.70;99.90
11128;DHT22;5618;51.028;5.234;2022-08-30T02:42:03;19.60;99.90
11128;DHT22;5618;51.028;5.234;2022-08-30T02:44:28;19.50;99.90
11128;DHT22;5618;51.028;5.234;2022-08-30T02:46:54;19.50;99.90
11128;DHT22;5618;51.028;5.234;2022-08-30T02:49:20;19.60;99.90
11128;DHT22;5618;51.028;5.234;2022-08-30T02:51:45;19.50;99.90
11128;DHT22;5618;51.028;5.234;2022-08-30T02:54:12;19.30;99.90
11128;DHT22;5618;51.028;5.234;2022-08-30T02:56:47;19.50;99.90
11128;DHT22;5618;51.028;5.234;2022-08-30T02:59:14;19.30;99.90
11128;DHT22;5618;51.028;5.234;2022-08-30T03:01:40;19.20;99.90
11128;DHT22;5618;51.028;5.234;2022-08-30T03:04:07;19.40;99.90
11128;DHT22;5618;51.028;5.234;2022-08-30T03:06:32;19.40;99.90
11128;DHT22;5618;51.028;5.234;2022-08-30T03:08:58;19.40;99.90
11128;DHT22;5618;51.028;5.234;2022-08-30T03:11:24;19.30;99.90
11128;DHT22;5618;51.028;5.234;2022-08-30T03:13:50;19.30;99.90
11128;DHT22;5618;51.028;5.234;2022-08-30T03:16:15;19.10;99.90
11128;DHT22;5618;51.028;5.234;2022-08-30T03:18:41;19.20;99.90
11128;DHT22;5618;51.028;5.234;2022-08-30T03:21:11;19.20;99.90
11128;DHT22;5618;51.028;5.234;2022-08-30T03:23:38;19.20;99.90
11128;DHT22;5618;51.028;5.234;2022-08-30T03:26:06;19.30;99.90
11128;DHT22;5618;51.028;5.234;2022-08-30T03:28:32;19.40;99.90
11128;DHT22;5618;51.028;5.234;2022-08-30T03:30:58;19.50;99.90
11128;DHT22;5618;51.028;5.234;2022-08-30T03:33:24;19.50;99.90
11128;DHT22;5618;51.028;5.234;2022-08-30T03:35:50;19.60;99.90
11128;DHT22;5618;51.028;5.234;2022-08-30T03:38:15;19.60;99.90
11128;DHT22;5618;51.028;5.234;2022-08-30T03:40:41;19.50;99.90
11128;DHT22;5618;51.028;5.234;2022-08-30T03:43:07;19.60;99.90
11128;DHT22;5618;51.028;5.234;2022-08-30T03:45:32;19.50;99.90
11128;DHT22;5618;51.028;5.234;2022-08-30T03:47:58;19.50;99.90
11128;DHT22;5618;51.028;5.234;2022-08-30T03:50:27;19.40;99.90
11128;DHT22;5618;51.028;5.234;2022-08-30T03:52:53;19.40;99.90
11128;DHT22;5618;51.028;5.234;2022-08-30T03:55:19;19.40;99.90
11128;DHT22;5618;51.028;5.234;2022-08-30T03:57:45;19.50;99.90
11128;DHT22;5618;51.028;5.234;2022-08-30T04:00:11;19.50;99.90
11128;DHT22;5618;51.028;5.234;2022-08-30T04:02:37;19.60;99.90
11128;DHT22;5618;51.028;5.234;2022-08-30T04:05:04;19.70;99.90
11128;DHT22;5618;51.028;5.234;2022-08-30T04:07:30;19.70;99.90
11128;DHT22;5618;51.028;5.234;2022-08-30T04:09:55;19.70;99.90
11128;DHT22;5618;51.028;5.234;2022-08-30T04:12:21;19.70;99.90
11128;DHT22;5618;51.028;5.234;2022-08-30T04:14:47;19.50;99.90
11128;DHT22;5618;51.028;5.234;2022-08-30T04:17:13;19.70;99.90
11128;DHT22;5618;51.028;5.234;2022-08-30T04:19:39;19.70;99.90
11128;DHT22;5618;51.028;5.234;2022-08-30T04:22:04;19.60;99.90
11128;DHT22;5618;51.028;5.234;2022-08-30T04:24:30;19.50;99.90
11128;DHT22;5618;51.028;5.234;2022-08-30T04:26:57;19.50;99.90
11128;DHT22;5618;51.028;5.234;2022-08-30T04:29:22;19.50;99.90
11128;DHT22;5618;51.028;5.234;2022-08-30T04:31:48;19.60;99.90
11128;DHT22;5618;51.028;5.234;2022-08-30T04:34:14;19.40;99.90
11128;DHT22;5618;51.028;5.234;2022-08-30T04:36:39;19.50;99.90
11128;DHT22;5618;51.028;5.234;2022-08-30T04:39:06;19.40;99.90
11128;DHT22;5618;51.028;5.234;2022-08-30T04:41:31;19.40;99.90
11128;DHT22;5618;51.028;5.234;2022-08-30T04:43:57;19.40;99.90
11128;DHT22;5618;51.028;5.234;2022-08-30T04:46:28;19.50;99.90
11128;DHT22;5618;51.028;5.234;2022-08-30T04:48:54;19.40;99.90
11128;DHT22;5618;51.028;5.234;2022-08-30T04:51:19;19.30;99.90
11128;DHT22;5618;51.028;5.234;2022-08-30T04:53:45;19.40;99.90
11128;DHT22;5618;51.028;5.234;2022-08-30T04:56:15;19.30;99.90
11128;DHT22;5618;51.028;5.234;2022-08-30T04:58:43;19.30;99.90
11128;DHT22;5618;51.028;5.234;2022-08-30T05:01:13;19.30;99.90
11128;DHT22;5618;51.028;5.234;2022-08-30T05:03:39;19.30;99.90
11128;DHT22;5618;51.028;5.234;2022-08-30T05:06:04;19.40;99.90
11128;DHT22;5618;51.028;5.234;2022-08-30T05:08:30;19.50;99.90
11128;DHT22;5618;51.028;5.234;2022-08-30T05:10:56;19.40;99.90
11128;DHT22;5618;51.028;5.234;2022-08-30T05:13:21;19.30;99.90
11128;DHT22;5618;51.028;5.234;2022-08-30T05:15:47;19.30;99.90
11128;DHT22;5618;51.028;5.234;2022-08-30T05:18:13;19.30;99.90
11128;DHT22;5618;51.028;5.234;2022-08-30T05:20:41;19.30;99.90
11128;DHT22;5618;51.028;5.234;2022-08-30T05:23:07;19.30;99.90
11128;DHT22;5618;51.028;5.234;2022-08-30T05:25:36;19.10;99.90
11128;DHT22;5618;51.028;5.234;2022-08-30T05:28:02;19.10;99.90
11128;DHT22;5618;51.028;5.234;2022-08-30T05:30:31;19.00;99.90
11128;DHT22;5618;51.028;5.234;2022-08-30T05:32:58;19.00;99.90
11128;DHT22;5618;51.028;5.234;2022-08-30T05:35:23;19.00;99.90
11128;DHT22;5618;51.028;5.234;2022-08-30T05:37:49;18.80;99.90
11128;DHT22;5618;51.028;5.234;2022-08-30T05:40:15;18.80;99.90
11128;DHT22;5618;51.028;5.234;2022-08-30T05:42:45;19.00;99.90
11128;DHT22;5618;51.028;5.234;2022-08-30T05:45:11;19.10;99.90
11128;DHT22;5618;51.028;5.234;2022-08-30T05:47:37;18.80;99.90
11128;DHT22;5618;51.028;5.234;2022-08-30T05:50:04;18.90;99.90
11128;DHT22;5618;51.028;5.234;2022-08-30T05:52:36;18.90;99.90
11128;DHT22;5618;51.028;5.234;2022-08-30T05:55:04;18.90;99.90
11128;DHT22;5618;51.028;5.234;2022-08-30T05:57:33;18.80;99.90
11128;DHT22;5618;51.028;5.234;2022-08-30T06:00:00;18.80;99.90
11128;DHT22;5618;51.028;5.234;2022-08-30T06:02:26;18.80;99.90
11128;DHT22;5618;51.028;5.234;2022-08-30T06:04:52;18.80;99.90
11128;DHT22;5618;51.028;5.234;2022-08-30T06:07:17;18.90;99.90
11128;DHT22;5618;51.028;5.234;2022-08-30T06:09:43;19.00;99.90
11128;DHT22;5618;51.028;5.234;2022-08-30T06:12:08;19.10;99.90
11128;DHT22;5618;51.028;5.234;2022-08-30T06:14:34;19.20;99.90
11128;DHT22;5618;51.028;5.234;2022-08-30T06:17:00;19.40;99.90
11128;DHT22;5618;51.028;5.234;2022-08-30T06:19:25;19.30;99.90
11128;DHT22;5618;51.028;5.234;2022-08-30T06:21:51;19.40;99.90
11128;DHT22;5618;51.028;5.234;2022-08-30T06:24:17;19.70;99.90
11128;DHT22;5618;51.028;5.234;2022-08-30T06:26:44;19.90;99.90
11128;DHT22;5618;51.028;5.234;2022-08-30T06:29:14;19.90;99.90
11128;DHT22;5618;51.028;5.234;2022-08-30T06:31:40;19.90;99.90
11128;DHT22;5618;51.028;5.234;2022-08-30T06:34:06;20.10;99.90
11128;DHT22;5618;51.028;5.234;2022-08-30T06:36:32;20.60;99.90
11128;DHT22;5618;51.028;5.234;2022-08-30T06:38:59;20.50;99.90
11128;DHT22;5618;51.028;5.234;2022-08-30T06:41:30;20.40;99.90
11128;DHT22;5618;51.028;5.234;2022-08-30T06:43:57;20.60;99.90
11128;DHT22;5618;51.028;5.234;2022-08-30T06:46:26;20.30;99.90
11128;DHT22;5618;51.028;5.234;2022-08-30T06:48:52;20.50;99.90
11128;DHT22;5618;51.028;5.234;2022-08-30T06:51:25;20.60;99.90
11128;DHT22;5618;51.028;5.234;2022-08-30T06:53:51;20.60;99.90
11128;DHT22;5618;51.028;5.234;2022-08-30T06:56:18;20.60;99.90
11128;DHT22;5618;51.028;5.234;2022-08-30T06:58:44;20.70;99.90
11128;DHT22;5618;51.028;5.234;2022-08-30T07:01:13;20.70;99.90
11128;DHT22;5618;51.028;5.234;2022-08-30T07:03:38;20.70;99.90
11128;DHT22;5618;51.028;5.234;2022-08-30T07:06:05;20.70;99.90
11128;DHT22;5618;51.028;5.234;2022-08-30T07:08:31;20.60;99.90
11128;DHT22;5618;51.028;5.234;2022-08-30T07:10:57;20.60;99.90
11128;DHT22;5618;51.028;5.234;2022-08-30T07:13:23;20.50;99.90
11128;DHT22;5618;51.028;5.234;2022-08-30T07:15:49;20.70;99.90
11128;DHT22;5618;51.028;5.234;2022-08-30T07:18:15;20.80;99.90
11128;DHT22;5618;51.028;5.234;2022-08-30T07:21:12;20.90;99.90
11128;DHT22;5618;51.028;5.234;2022-08-30T07:23:39;21.10;99.90
11128;DHT22;5618;51.028;5.234;2022-08-30T07:26:06;21.30;99.90
11128;DHT22;5618;51.028;5.234;2022-08-30T07:28:34;21.70;99.90
11128;DHT22;5618;51.028;5.234;2022-08-30T07:31:00;21.70;99.90
11128;DHT22;5618;51.028;5.234;2022-08-30T07:33:26;21.30;99.90
11128;DHT22;5618;51.028;5.234;2022-08-30T07:35:52;21.50;99.90
11128;DHT22;5618;51.028;5.234;2022-08-30T07:38:18;21.70;99.90
11128;DHT22;5618;51.028;5.234;2022-08-30T07:40:43;21.60;99.90
11128;DHT22;5618;51.028;5.234;2022-08-30T07:43:09;21.50;99.90
11128;DHT22;5618;51.028;5.234;2022-08-30T07:45:36;21.40;99.90
11128;DHT22;5618;51.028;5.234;2022-08-30T07:48:03;21.70;99.90
11128;DHT22;5618;51.028;5.234;2022-08-30T07:50:29;21.50;99.90
11128;DHT22;5618;51.028;5.234;2022-08-30T07:52:55;21.50;99.90
11128;DHT22;5618;51.028;5.234;2022-08-30T07:55:20;21.50;99.90
11128;DHT22;5618;51.028;5.234;2022-08-30T07:57:46;21.60;99.90
11128;DHT22;5618;51.028;5.234;2022-08-30T08:00:12;21.70;99.90
11128;DHT22;5618;51.028;5.234;2022-08-30T08:02:39;21.70;99.90
11128;DHT22;5618;51.028;5.234;2022-08-30T08:05:06;22.00;99.90
11128;DHT22;5618;51.028;5.234;2022-08-30T08:07:33;22.20;99.90
11128;DHT22;5618;51.028;5.234;2022-08-30T08:09:59;22.50;99.90
11128;DHT22;5618;51.028;5.234;2022-08-30T08:12:26;22.80;99.90
11128;DHT22;5618;51.028;5.234;2022-08-30T08:14:52;23.20;99.90
11128;DHT22;5618;51.028;5.234;2022-08-30T08:17:18;23.40;99.90
11128;DHT22;5618;51.028;5.234;2022-08-30T08:19:44;23.30;99.90
11128;DHT22;5618;51.028;5.234;2022-08-30T08:22:10;23.30;99.90
11128;DHT22;5618;51.028;5.234;2022-08-30T08:24:36;23.50;99.90
11128;DHT22;5618;51.028;5.234;2022-08-30T08:27:01;23.50;99.90
11128;DHT22;5618;51.028;5.234;2022-08-30T08:29:27;23.80;99.90
11128;DHT22;5618;51.028;5.234;2022-08-30T08:31:53;23.80;99.90
11128;DHT22;5618;51.028;5.234;2022-08-30T08:34:19;23.90;99.90
11128;DHT22;5618;51.028;5.234;2022-08-30T08:36:48;23.70;99.90
11128;DHT22;5618;51.028;5.234;2022-08-30T08:39:15;23.70;99.90
11128;DHT22;5618;51.028;5.234;2022-08-30T08:47:38;24.40;99.90
11128;DHT22;5618;51.028;5.234;2022-08-30T08:50:09;24.70;99.90
11128;DHT22;5618;51.028;5.234;2022-08-30T08:55:41;25.20;99.90
11128;DHT22;5618;51.028;5.234;2022-08-30T08:58:18;25.00;99.90
11128;DHT22;5618;51.028;5.234;2022-08-30T09:00:45;24.60;99.90
11128;DHT22;5618;51.028;5.234;2022-08-30T09:03:12;24.90;99.90
11128;DHT22;5618;51.028;5.234;2022-08-30T09:05:40;24.70;99.90
11128;DHT22;5618;51.028;5.234;2022-08-30T09:08:12;24.80;99.90
11128;DHT22;5618;51.028;5.234;2022-08-30T09:10:40;25.20;99.90
11128;DHT22;5618;51.028;5.234;2022-08-30T09:13:07;25.40;99.90
11128;DHT22;5618;51.028;5.234;2022-08-30T09:15:33;25.30;99.90
11128;DHT22;5618;51.028;5.234;2022-08-30T09:18:05;25.50;99.90
11128;DHT22;5618;51.028;5.234;2022-08-30T09:20:37;25.40;99.90
11128;DHT22;5618;51.028;5.234;2022-08-30T09:25:50;25.60;99.90
11128;DHT22;5618;51.028;5.234;2022-08-30T09:28:28;25.10;99.90
11128;DHT22;5618;51.028;5.234;2022-08-30T09:31:03;25.30;99.90
11128;DHT22;5618;51.028;5.234;2022-08-30T09:33:30;25.90;99.90
11128;DHT22;5618;51.028;5.234;2022-08-30T09:35:56;26.20;99.90
11128;DHT22;5618;51.028;5.234;2022-08-30T09:38:33;26.00;99.90
11128;DHT22;5618;51.028;5.234;2022-08-30T09:41:01;26.30;99.90
11128;DHT22;5618;51.028;5.234;2022-08-30T09:46:52;26.20;99.90
11128;DHT22;5618;51.028;5.234;2022-08-30T09:49:34;26.10;99.90
11128;DHT22;5618;51.028;5.234;2022-08-30T10:22:16;26.10;99.90
11128;DHT22;5618;51.028;5.234;2022-08-30T10:24:38;26.20;99.90
11128;DHT22;5618;51.028;5.234;2022-08-30T10:27:09;26.10;99.90
11128;DHT22;5618;51.028;5.234;2022-08-30T10:29:45;26.30;99.90
11128;DHT22;5618;51.028;5.234;2022-08-30T10:32:21;26.20;99.90
11128;DHT22;5618;51.028;5.234;2022-08-30T10:37:31;26.20;99.90
11128;DHT22;5618;51.028;5.234;2022-08-30T10:46:09;26.30;99.90
11128;DHT22;5618;51.028;5.234;2022-08-30T10:48:38;26.40;99.90
11128;DHT22;5618;51.028;5.234;2022-08-30T10:51:14;26.40;99.90
11128;DHT22;5618;51.028;5.234;2022-08-30T10:53:48;26.60;99.90
11128;DHT22;5618;51.028;5.234;2022-08-30T10:56:21;27.00;99.90
11128;DHT22;5618;51.028;5.234;2022-08-30T10:58:49;27.40;99.90
11128;DHT22;5618;51.028;5.234;2022-08-30T11:07:08;27.60;99.90
11128;DHT22;5618;51.028;5.234;2022-08-30T11:12:31;27.50;99.90
11128;DHT22;5618;51.028;5.234;2022-08-30T11:14:59;27.00;99.90
11128;DHT22;5618;51.028;5.234;2022-08-30T11:20:36;26.80;99.90
11128;DHT22;5618;51.028;5.234;2022-08-30T11:25:59;27.20;99.90
11128;DHT22;5618;51.028;5.234;2022-08-30T11:31:09;27.70;99.90
11128;DHT22;5618;51.028;5.234;2022-08-30T11:33:53;27.80;99.90
11128;DHT22;5618;51.028;5.234;2022-08-30T11:39:08;27.80;99.90
11128;DHT22;5618;51.028;5.234;2022-08-30T11:41:45;28.10;99.90
11128;DHT22;5618;51.028;5.234;2022-08-30T11:44:31;28.00;99.90
11128;DHT22;5618;51.028;5.234;2022-08-30T11:47:01;28.00;99.90
11128;DHT22;5618;51.028;5.234;2022-08-30T11:50:29;27.20;99.90
11128;DHT22;5618;51.028;5.234;2022-08-30T12:03:58;27.40;99.90
11128;DHT22;5618;51.028;5.234;2022-08-30T12:14:51;27.40;99.90
11128;DHT22;5618;51.028;5.234;2022-08-30T12:20:05;27.60;99.90
11128;DHT22;5618;51.028;5.234;2022-08-30T12:22:35;27.80;99.90
11128;DHT22;5618;51.028;5.234;2022-08-30T12:25:33;27.60;99.90
11128;DHT22;5618;51.028;5.234;2022-08-30T12:28:23;27.00;99.90
11128;DHT22;5618;51.028;5.234;2022-08-30T12:30:50;26.80;99.90
11128;DHT22;5618;51.028;5.234;2022-08-30T12:33:40;27.00;99.90
11128;DHT22;5618;51.028;5.234;2022-08-30T12:36:11;27.10;99.80
11128;DHT22;5618;51.028;5.234;2022-08-30T12:38:37;27.00;99.90
11128;DHT22;5618;51.028;5.234;2022-08-30T12:41:03;27.40;99.90
11128;DHT22;5618;51.028;5.234;2022-08-30T12:43:48;27.50;99.80
11128;DHT22;5618;51.028;5.234;2022-08-30T12:46:16;27.80;99.40
11128;DHT22;5618;51.028;5.234;2022-08-30T12:48:43;27.80;99.40
11128;DHT22;5618;51.028;5.234;2022-08-30T12:51:28;27.90;99.50
11128;DHT22;5618;51.028;5.234;2022-08-30T12:54:02;27.80;98.70
11128;DHT22;5618;51.028;5.234;2022-08-30T12:56:52;27.50;99.30
11128;DHT22;5618;51.028;5.234;2022-08-30T12:59:51;27.60;99.50
11128;DHT22;5618;51.028;5.234;2022-08-30T13:02:23;27.70;99.70
11128;DHT22;5618;51.028;5.234;2022-08-30T13:04:50;27.70;99.40
11128;DHT22;5618;51.028;5.234;2022-08-30T13:07:29;27.40;99.30
11128;DHT22;5618;51.028;5.234;2022-08-30T13:10:14;27.10;99.90
11128;DHT22;5618;51.028;5.234;2022-08-30T13:12:59;27.00;99.90
11128;DHT22;5618;51.028;5.234;2022-08-30T13:15:34;27.10;99.90
11128;DHT22;5618;51.028;5.234;2022-08-30T13:18:28;26.90;99.90
11128;DHT22;5618;51.028;5.234;2022-08-30T13:21:32;27.10;99.80
11128;DHT22;5618;51.028;5.234;2022-08-30T13:24:01;27.00;99.60
11128;DHT22;5618;51.028;5.234;2022-08-30T13:26:29;27.20;99.90
11128;DHT22;5618;51.028;5.234;2022-08-30T13:28:58;27.20;99.80
11128;DHT22;5618;51.028;5.234;2022-08-30T13:31:25;27.00;99.60
11128;DHT22;5618;51.028;5.234;2022-08-30T13:33:52;26.80;99.60
11128;DHT22;5618;51.028;5.234;2022-08-30T13:36:20;26.80;99.90
11128;DHT22;5618;51.028;5.234;2022-08-30T13:38:46;27.00;99.90
11128;DHT22;5618;51.028;5.234;2022-08-30T13:41:13;27.10;99.80
11128;DHT22;5618;51.028;5.234;2022-08-30T13:43:39;27.20;99.50
11128;DHT22;5618;51.028;5.234;2022-08-30T13:46:06;27.30;99.40
11128;DHT22;5618;51.028;5.234;2022-08-30T13:48:33;27.40;98.60
11128;DHT22;5618;51.028;5.234;2022-08-30T13:50:59;27.30;99.10
11128;DHT22;5618;51.028;5.234;2022-08-30T13:53:24;27.40;99.80
11128;DHT22;5618;51.028;5.234;2022-08-30T13:55:50;27.30;99.40
11128;DHT22;5618;51.028;5.234;2022-08-30T13:58:16;27.30;99.20
11128;DHT22;5618;51.028;5.234;2022-08-30T14:00:43;27.40;99.20
11128;DHT22;5618;51.028;5.234;2022-08-30T14:03:11;27.40;99.10
11128;DHT22;5618;51.028;5.234;2022-08-30T14:05:38;27.30;99.50
11128;DHT22;5618;51.028;5.234;2022-08-30T14:08:06;27.20;98.90
11128;DHT22;5618;51.028;5.234;2022-08-30T14:10:34;27.00;99.00
11128;DHT22;5618;51.028;5.234;2022-08-30T14:13:00;26.70;99.40
11128;DHT22;5618;51.028;5.234;2022-08-30T14:15:26;26.80;99.50
11128;DHT22;5618;51.028;5.234;2022-08-30T14:17:52;26.70;99.70
11128;DHT22;5618;51.028;5.234;2022-08-30T14:20:18;26.50;99.50
11128;DHT22;5618;51.028;5.234;2022-08-30T14:22:44;26.80;99.30
11128;DHT22;5618;51.028;5.234;2022-08-30T14:25:10;26.80;99.20
11128;DHT22;5618;51.028;5.234;2022-08-30T14:27:35;26.90;99.50
11128;DHT22;5618;51.028;5.234;2022-08-30T14:30:01;27.00;99.50
11128;DHT22;5618;51.028;5.234;2022-08-30T14:32:27;27.30;98.80
11128;DHT22;5618;51.028;5.234;2022-08-30T14:34:52;27.10;99.30
11128;DHT22;5618;51.028;5.234;2022-08-30T14:37:18;27.10;98.90
11128;DHT22;5618;51.028;5.234;2022-08-30T14:39:44;27.30;98.70
11128;DHT22;5618;51.028;5.234;2022-08-30T14:42:09;27.10;99.10
11128;DHT22;5618;51.028;5.234;2022-08-30T14:44:37;26.90;99.10
11128;DHT22;5618;51.028;5.234;2022-08-30T14:47:04;26.70;99.00
11128;DHT22;5618;51.028;5.234;2022-08-30T14:49:30;26.60;99.00
11128;DHT22;5618;51.028;5.234;2022-08-30T14:51:56;26.70;99.00
11128;DHT22;5618;51.028;5.234;2022-08-30T14:54:25;26.60;99.40
11128;DHT22;5618;51.028;5.234;2022-08-30T14:56:52;26.70;99.40
11128;DHT22;5618;51.028;5.234;2022-08-30T14:59:18;26.80;99.10
11128;DHT22;5618;51.028;5.234;2022-08-30T15:01:44;26.90;99.10
11128;DHT22;5618;51.028;5.234;2022-08-30T15:04:11;27.10;99.10
11128;DHT22;5618;51.028;5.234;2022-08-30T15:06:38;27.20;99.20
11128;DHT22;5618;51.028;5.234;2022-08-30T15:09:06;27.50;98.80
11128;DHT22;5618;51.028;5.234;2022-08-30T15:11:33;27.50;98.40
11128;DHT22;5618;51.028;5.234;2022-08-30T15:13:59;27.40;98.50
11128;DHT22;5618;51.028;5.234;2022-08-30T15:16:30;27.50;98.40
11128;DHT22;5618;51.028;5.234;2022-08-30T15:18:57;27.40;98.00
11128;DHT22;5618;51.028;5.234;2022-08-30T15:21:24;27.00;98.50
11128;DHT22;5618;51.028;5.234;2022-08-30T15:23:50;27.00;98.60
11128;DHT22;5618;51.028;5.234;2022-08-30T15:26:16;26.70;98.50
11128;DHT22;5618;51.028;5.234;2022-08-30T15:28:43;26.70;98.90
11128;DHT22;5618;51.028;5.234;2022-08-30T15:31:08;26.90;99.00
11128;DHT22;5618;51.028;5.234;2022-08-30T15:33:35;27.10;99.60
11128;DHT22;5618;51.028;5.234;2022-08-30T15:36:01;27.20;98.90
11128;DHT22;5618;51.028;5.234;2022-08-30T15:38:29;27.20;98.90
11128;DHT22;5618;51.028;5.234;2022-08-30T15:40:55;27.40;99.00
11128;DHT22;5618;51.028;5.234;2022-08-30T15:43:24;27.00;99.30
11128;DHT22;5618;51.028;5.234;2022-08-30T15:45:52;26.80;99.80
11128;DHT22;5618;51.028;5.234;2022-08-30T15:48:18;26.90;99.70
11128;DHT22;5618;51.028;5.234;2022-08-30T15:50:43;26.90;99.60
11128;DHT22;5618;51.028;5.234;2022-08-30T15:53:09;27.10;99.50
11128;DHT22;5618;51.028;5.234;2022-08-30T15:55:35;27.00;99.40
11128;DHT22;5618;51.028;5.234;2022-08-30T15:58:00;26.90;99.40
11128;DHT22;5618;51.028;5.234;2022-08-30T16:00:26;26.60;99.70
11128;DHT22;5618;51.028;5.234;2022-08-30T16:02:52;26.50;99.70
11128;DHT22;5618;51.028;5.234;2022-08-30T16:05:18;26.50;99.80
11128;DHT22;5618;51.028;5.234;2022-08-30T16:07:45;26.60;99.70
11128;DHT22;5618;51.028;5.234;2022-08-30T16:10:12;26.50;99.70
11128;DHT22;5618;51.028;5.234;2022-08-30T16:12:38;26.30;99.90
11128;DHT22;5618;51.028;5.234;2022-08-30T16:15:04;26.20;99.90
11128;DHT22;5618;51.028;5.234;2022-08-30T16:17:30;26.50;99.90
11128;DHT22;5618;51.028;5.234;2022-08-30T16:19:56;26.70;99.80
11128;DHT22;5618;51.028;5.234;2022-08-30T16:22:22;26.50;99.60
11128;DHT22;5618;51.028;5.234;2022-08-30T16:24:49;26.50;99.50
11128;DHT22;5618;51.028;5.234;2022-08-30T16:27:15;26.60;99.70
11128;DHT22;5618;51.028;5.234;2022-08-30T16:29:41;26.60;99.80
11128;DHT22;5618;51.028;5.234;2022-08-30T16:32:07;26.30;99.90
11128;DHT22;5618;51.028;5.234;2022-08-30T16:34:33;26.30;99.90
11128;DHT22;5618;51.028;5.234;2022-08-30T16:36:58;26.50;99.90
11128;DHT22;5618;51.028;5.234;2022-08-30T16:39:24;26.50;99.60
11128;DHT22;5618;51.028;5.234;2022-08-30T16:41:50;26.60;99.50
11128;DHT22;5618;51.028;5.234;2022-08-30T16:44:15;26.80;99.40
11128;DHT22;5618;51.028;5.234;2022-08-30T16:46:42;26.70;99.30
11128;DHT22;5618;51.028;5.234;2022-08-30T16:49:08;26.50;99.20
11128;DHT22;5618;51.028;5.234;2022-08-30T16:51:34;26.60;99.30
11128;DHT22;5618;51.028;5.234;2022-08-30T16:54:03;26.40;99.50
11128;DHT22;5618;51.028;5.234;2022-08-30T16:56:30;26.50;99.50
11128;DHT22;5618;51.028;5.234;2022-08-30T16:58:57;26.30;99.50
11128;DHT22;5618;51.028;5.234;2022-08-30T17:01:23;26.30;99.20
11128;DHT22;5618;51.028;5.234;2022-08-30T17:03:49;26.10;99.40
11128;DHT22;5618;51.028;5.234;2022-08-30T17:06:15;26.20;99.40
11128;DHT22;5618;51.028;5.234;2022-08-30T17:08:41;26.20;98.80
11128;DHT22;5618;51.028;5.234;2022-08-30T17:11:09;25.90;99.60
11128;DHT22;5618;51.028;5.234;2022-08-30T17:13:35;26.10;99.20
11128;DHT22;5618;51.028;5.234;2022-08-30T17:16:03;26.10;99.00
11128;DHT22;5618;51.028;5.234;2022-08-30T17:18:29;26.00;99.20
11128;DHT22;5618;51.028;5.234;2022-08-30T17:20:55;26.20;99.00
11128;DHT22;5618;51.028;5.234;2022-08-30T17:23:21;25.80;99.00
11128;DHT22;5618;51.028;5.234;2022-08-30T17:25:47;25.60;99.50
11128;DHT22;5618;51.028;5.234;2022-08-30T17:28:13;25.70;99.10
11128;DHT22;5618;51.028;5.234;2022-08-30T17:30:39;25.80;99.00
11128;DHT22;5618;51.028;5.234;2022-08-30T17:33:05;25.70;99.50